sensor_id;sensor_type;location;lat;lon;timestamp;temperature;humidity
52181;DHT22;38158;53.338;6.514;2023-09-19T00:00:37;13.80;99.90
52181;DHT22;38158;53.338;6.514;2023-09-19T00:03:03;13.70;99.90
52181;DHT22;38158;53.338;6.514;2023-09-19T00:05:34;13.70;99.90
52181;DHT22;38158;53.338;6.514;2023-09-19T00:08:00;13.70;99.90
52181;DHT22;38158;53.338;6.514;2023-09-19T00:10:27;13.60;99.90
52181;DHT22;38158;53.338;6.514;2023-09-19T00:12:57;13.60;99.90
52181;DHT22;38158;53.338;6.514;2023-09-19T00:15:25;13.60;99.90
52181;DHT22;38158;53.338;6.514;2023-09-19T00:17:54;13.60;99.90
52181;DHT22;38158;53.338;6.514;2023-09-19T00:20:21;13.50;99.90
52181;DHT22;38158;53.338;6.514;2023-09-19T00:22:49;13.50;99.90
52181;DHT22;38158;53.338;6.514;2023-09-19T00:25:17;13.50;99.90
52181;DHT22;38158;53.338;6.514;2023-09-19T00:27:43;13.50;99.90
52181;DHT22;38158;53.338;6.514;2023-09-19T00:30:11;13.50;99.90
52181;DHT22;38158;53.338;6.514;2023-09-19T00:32:46;13.50;99.90
52181;DHT22;38158;53.338;6.514;2023-09-19T00:35:16;13.50;99.90
52181;DHT22;38158;53.338;6.514;2023-09-19T00:37:42;13.40;99.90
52181;DHT22;38158;53.338;6.514;2023-09-19T00:40:09;13.40;99.90
52181;DHT22;38158;53.338;6.514;2023-09-19T00:42:45;13.40;99.90
52181;DHT22;38158;53.338;6.514;2023-09-19T00:45:12;13.40;99.90
52181;DHT22;38158;53.338;6.514;2023-09-19T00:47:44;13.40;99.90
52181;DHT22;38158;53.338;6.514;2023-09-19T00:50:22;13.40;99.90
52181;DHT22;38158;53.338;6.514;2023-09-19T00:52:54;13.40;99.90
52181;DHT22;38158;53.338;6.514;2023-09-19T00:55:21;13.50;99.90
52181;DHT22;38158;53.338;6.514;2023-09-19T00:57:48;13.60;99.90
52181;DHT22;38158;53.338;6.514;2023-09-19T01:00:18;13.60;99.90
52181;DHT22;38158;53.338;6.514;2023-09-19T01:02:46;13.70;99.90
52181;DHT22;38158;53.338;6.514;2023-09-19T01:05:12;13.70;99.90
52181;DHT22;38158;53.338;6.514;2023-09-19T01:07:38;13.70;99.90
52181;DHT22;38158;53.338;6.514;2023-09-19T01:10:08;13.70;99.90
52181;DHT22;38158;53.338;6.514;2023-09-19T01:15:16;13.70;99.90
52181;DHT22;38158;53.338;6.514;2023-09-19T01:26:29;13.70;99.90
52181;DHT22;38158;53.338;6.514;2023-09-19T01:29:23;13.70;99.90
52181;DHT22;38158;53.338;6.514;2023-09-19T01:31:59;13.60;99.90
52181;DHT22;38158;53.338;6.514;2023-09-19T01:34:43;13.50;99.90
52181;DHT22;38158;53.338;6.514;2023-09-19T01:37:11;13.40;99.90
52181;DHT22;38158;53.338;6.514;2023-09-19T01:39:36;13.40;99.90
52181;DHT22;38158;53.338;6.514;2023-09-19T01:48:35;13.20;99.90
52181;DHT22;38158;53.338;6.514;2023-09-19T01:51:10;13.10;99.90
52181;DHT22;38158;53.338;6.514;2023-09-19T01:56:25;13.00;99.90
52181;DHT22;38158;53.338;6.514;2023-09-19T01:58:56;13.00;99.90
52181;DHT22;38158;53.338;6.514;2023-09-19T02:01:26;12.90;99.90
52181;DHT22;38158;53.338;6.514;2023-09-19T02:03:52;13.00;99.90
52181;DHT22;38158;53.338;6.514;2023-09-19T02:06:18;12.90;99.90
52181;DHT22;38158;53.338;6.514;2023-09-19T02:08:45;12.90;99.90
52181;DHT22;38158;53.338;6.514;2023-09-19T02:11:14;12.90;99.90
52181;DHT22;38158;53.338;6.514;2023-09-19T02:13:40;12.80;99.90
52181;DHT22;38158;53.338;6.514;2023-09-19T02:16:06;12.80;99.90
52181;DHT22;38158;53.338;6.514;2023-09-19T02:18:33;12.80;99.90
52181;DHT22;38158;53.338;6.514;2023-09-19T02:21:01;12.80;99.90
52181;DHT22;38158;53.338;6.514;2023-09-19T02:23:27;12.80;99.90
52181;DHT22;38158;53.338;6.514;2023-09-19T02:25:56;12.80;99.90
52181;DHT22;38158;53.338;6.514;2023-09-19T02:28:26;12.80;99.90
52181;DHT22;38158;53.338;6.514;2023-09-19T02:30:55;12.70;99.90
52181;DHT22;38158;53.338;6.514;2023-09-19T02:33:21;12.70;99.90
52181;DHT22;38158;53.338;6.514;2023-09-19T02:35:47;12.70;99.90
52181;DHT22;38158;53.338;6.514;2023-09-19T02:38:13;12.60;99.90
52181;DHT22;38158;53.338;6.514;2023-09-19T02:40:40;12.60;99.90
52181;DHT22;38158;53.338;6.514;2023-09-19T02:43:05;12.60;99.90
52181;DHT22;38158;53.338;6.514;2023-09-19T02:45:33;12.60;99.90
52181;DHT22;38158;53.338;6.514;2023-09-19T02:47:59;12.60;99.90
52181;DHT22;38158;53.338;6.514;2023-09-19T02:50:25;12.60;99.90
52181;DHT22;38158;53.338;6.514;2023-09-19T02:52:51;12.50;99.90
52181;DHT22;38158;53.338;6.514;2023-09-19T02:55:18;12.60;99.90
52181;DHT22;38158;53.338;6.514;2023-09-19T02:57:48;12.60;99.90
52181;DHT22;38158;53.338;6.514;2023-09-19T03:00:15;12.60;99.90
52181;DHT22;38158;53.338;6.514;2023-09-19T03:02:41;12.60;99.90
52181;DHT22;38158;53.338;6.514;2023-09-19T03:05:07;12.60;99.90
52181;DHT22;38158;53.338;6.514;2023-09-19T03:07:33;12.60;99.90
52181;DHT22;38158;53.338;6.514;2023-09-19T03:09:59;12.70;99.90
52181;DHT22;38158;53.338;6.514;2023-09-19T03:12:26;12.70;99.90
52181;DHT22;38158;53.338;6.514;2023-09-19T03:14:51;12.80;99.90
52181;DHT22;38158;53.338;6.514;2023-09-19T03:17:17;12.80;99.90
52181;DHT22;38158;53.338;6.514;2023-09-19T03:19:45;12.90;99.90
52181;DHT22;38158;53.338;6.514;2023-09-19T03:22:11;12.90;99.90
52181;DHT22;38158;53.338;6.514;2023-09-19T03:24:37;13.00;99.90
52181;DHT22;38158;53.338;6.514;2023-09-19T03:27:03;13.00;99.90
52181;DHT22;38158;53.338;6.514;2023-09-19T03:29:29;13.00;99.90
52181;DHT22;38158;53.338;6.514;2023-09-19T03:31:55;13.00;99.90
52181;DHT22;38158;53.338;6.514;2023-09-19T03:34:21;12.90;99.90
52181;DHT22;38158;53.338;6.514;2023-09-19T03:36:46;12.90;99.90
52181;DHT22;38158;53.338;6.514;2023-09-19T03:39:12;12.90;99.90
52181;DHT22;38158;53.338;6.514;2023-09-19T03:41:40;12.90;99.90
52181;DHT22;38158;53.338;6.514;2023-09-19T03:44:05;12.80;99.90
52181;DHT22;38158;53.338;6.514;2023-09-19T03:46:31;12.80;99.90
52181;DHT22;38158;53.338;6.514;2023-09-19T03:48:57;12.80;99.90
52181;DHT22;38158;53.338;6.514;2023-09-19T03:51:23;12.70;99.90
52181;DHT22;38158;53.338;6.514;2023-09-19T03:53:49;12.60;99.90
52181;DHT22;38158;53.338;6.514;2023-09-19T03:56:15;12.50;99.90
52181;DHT22;38158;53.338;6.514;2023-09-19T03:58:41;12.50;99.90
52181;DHT22;38158;53.338;6.514;2023-09-19T04:01:07;12.50;99.90
52181;DHT22;38158;53.338;6.514;2023-09-19T04:03:33;12.40;99.90
52181;DHT22;38158;53.338;6.514;2023-09-19T04:06:16;12.40;99.90
52181;DHT22;38158;53.338;6.514;2023-09-19T04:08:42;12.30;99.90
52181;DHT22;38158;53.338;6.514;2023-09-19T04:11:08;12.40;99.90
52181;DHT22;38158;53.338;6.514;2023-09-19T04:13:34;12.30;99.90
52181;DHT22;38158;53.338;6.514;2023-09-19T04:16:00;12.20;99.90
52181;DHT22;38158;53.338;6.514;2023-09-19T04:18:26;12.20;99.90
52181;DHT22;38158;53.338;6.514;2023-09-19T04:20:52;12.20;99.90
52181;DHT22;38158;53.338;6.514;2023-09-19T04:23:19;12.30;99.90
52181;DHT22;38158;53.338;6.514;2023-09-19T04:25:47;12.30;99.90
52181;DHT22;38158;53.338;6.514;2023-09-19T04:28:14;12.40;99.90
52181;DHT22;38158;53.338;6.514;2023-09-19T04:30:40;12.30;99.90
52181;DHT22;38158;53.338;6.514;2023-09-19T04:33:06;12.30;99.90
52181;DHT22;38158;53.338;6.514;2023-09-19T04:35:32;12.30;99.90
52181;DHT22;38158;53.338;6.514;2023-09-19T04:37:58;12.30;99.90
52181;DHT22;38158;53.338;6.514;2023-09-19T04:40:24;12.30;99.90
52181;DHT22;38158;53.338;6.514;2023-09-19T04:42:55;12.30;99.90
52181;DHT22;38158;53.338;6.514;2023-09-19T04:45:22;12.30;99.90
52181;DHT22;38158;53.338;6.514;2023-09-19T04:47:48;12.30;99.90
52181;DHT22;38158;53.338;6.514;2023-09-19T04:50:14;12.30;99.90
52181;DHT22;38158;53.338;6.514;2023-09-19T04:52:41;12.30;99.90
52181;DHT22;38158;53.338;6.514;2023-09-19T04:55:14;12.30;99.90
52181;DHT22;38158;53.338;6.514;2023-09-19T04:57:44;12.30;99.90
52181;DHT22;38158;53.338;6.514;2023-09-19T05:00:12;12.40;99.90
52181;DHT22;38158;53.338;6.514;2023-09-19T05:02:38;12.30;99.90
52181;DHT22;38158;53.338;6.514;2023-09-19T05:05:06;12.40;99.90
52181;DHT22;38158;53.338;6.514;2023-09-19T05:07:32;12.40;99.90
52181;DHT22;38158;53.338;6.514;2023-09-19T05:09:59;12.40;99.90
52181;DHT22;38158;53.338;6.514;2023-09-19T05:12:26;12.40;99.90
52181;DHT22;38158;53.338;6.514;2023-09-19T05:14:52;12.40;99.90
52181;DHT22;38158;53.338;6.514;2023-09-19T05:17:18;12.40;99.90
52181;DHT22;38158;53.338;6.514;2023-09-19T05:19:44;12.50;99.90
52181;DHT22;38158;53.338;6.514;2023-09-19T05:22:11;12.50;99.90
52181;DHT22;38158;53.338;6.514;2023-09-19T05:24:38;12.50;99.90
52181;DHT22;38158;53.338;6.514;2023-09-19T05:27:07;12.50;99.90
52181;DHT22;38158;53.338;6.514;2023-09-19T05:29:33;12.60;99.90
52181;DHT22;38158;53.338;6.514;2023-09-19T05:31:59;12.60;99.90
52181;DHT22;38158;53.338;6.514;2023-09-19T05:34:25;12.60;99.90
52181;DHT22;38158;53.338;6.514;2023-09-19T05:36:55;12.70;99.90
52181;DHT22;38158;53.338;6.514;2023-09-19T05:39:21;12.70;99.90
52181;DHT22;38158;53.338;6.514;2023-09-19T05:41:48;12.70;99.90
52181;DHT22;38158;53.338;6.514;2023-09-19T05:44:14;12.80;99.90
52181;DHT22;38158;53.338;6.514;2023-09-19T05:46:40;12.80;99.90
52181;DHT22;38158;53.338;6.514;2023-09-19T05:49:06;12.80;99.90
52181;DHT22;38158;53.338;6.514;2023-09-19T05:51:31;12.80;99.90
52181;DHT22;38158;53.338;6.514;2023-09-19T05:53:57;12.90;99.90
52181;DHT22;38158;53.338;6.514;2023-09-19T05:56:23;12.90;99.90
52181;DHT22;38158;53.338;6.514;2023-09-19T05:58:49;13.00;99.90
52181;DHT22;38158;53.338;6.514;2023-09-19T06:01:17;13.00;99.90
52181;DHT22;38158;53.338;6.514;2023-09-19T06:03:43;13.00;99.90
52181;DHT22;38158;53.338;6.514;2023-09-19T06:06:09;13.00;99.90
52181;DHT22;38158;53.338;6.514;2023-09-19T06:08:35;13.00;99.90
52181;DHT22;38158;53.338;6.514;2023-09-19T06:11:00;13.10;99.90
52181;DHT22;38158;53.338;6.514;2023-09-19T06:13:29;13.20;99.90
52181;DHT22;38158;53.338;6.514;2023-09-19T06:15:55;13.20;99.90
52181;DHT22;38158;53.338;6.514;2023-09-19T06:18:24;13.20;99.90
52181;DHT22;38158;53.338;6.514;2023-09-19T06:20:52;13.30;99.90
52181;DHT22;38158;53.338;6.514;2023-09-19T06:23:17;13.30;99.90
52181;DHT22;38158;53.338;6.514;2023-09-19T06:25:45;13.30;99.90
52181;DHT22;38158;53.338;6.514;2023-09-19T06:28:11;13.40;99.90
52181;DHT22;38158;53.338;6.514;2023-09-19T06:30:43;13.40;99.90
52181;DHT22;38158;53.338;6.514;2023-09-19T06:33:09;13.40;99.90
52181;DHT22;38158;53.338;6.514;2023-09-19T06:35:37;13.40;99.90
52181;DHT22;38158;53.338;6.514;2023-09-19T06:38:03;13.40;99.90
52181;DHT22;38158;53.338;6.514;2023-09-19T06:40:29;13.40;99.90
52181;DHT22;38158;53.338;6.514;2023-09-19T06:42:56;13.40;99.90
52181;DHT22;38158;53.338;6.514;2023-09-19T06:45:22;13.40;99.90
52181;DHT22;38158;53.338;6.514;2023-09-19T06:47:50;13.40;99.90
52181;DHT22;38158;53.338;6.514;2023-09-19T06:50:20;13.50;99.90
52181;DHT22;38158;53.338;6.514;2023-09-19T06:52:51;13.50;99.90
52181;DHT22;38158;53.338;6.514;2023-09-19T06:55:21;13.60;99.90
52181;DHT22;38158;53.338;6.514;2023-09-19T06:57:50;13.60;99.90
52181;DHT22;38158;53.338;6.514;2023-09-19T07:00:16;13.60;99.90
52181;DHT22;38158;53.338;6.514;2023-09-19T07:03:03;13.70;99.90
52181;DHT22;38158;53.338;6.514;2023-09-19T07:05:33;13.70;99.90
52181;DHT22;38158;53.338;6.514;2023-09-19T07:07:59;13.80;99.90
52181;DHT22;38158;53.338;6.514;2023-09-19T07:10:26;13.80;99.90
52181;DHT22;38158;53.338;6.514;2023-09-19T07:13:03;13.90;99.90
52181;DHT22;38158;53.338;6.514;2023-09-19T07:15:32;13.90;99.90
52181;DHT22;38158;53.338;6.514;2023-09-19T07:18:04;14.00;99.90
52181;DHT22;38158;53.338;6.514;2023-09-19T07:20:31;14.00;99.90
52181;DHT22;38158;53.338;6.514;2023-09-19T07:23:00;14.10;99.90
52181;DHT22;38158;53.338;6.514;2023-09-19T07:25:27;14.10;99.90
52181;DHT22;38158;53.338;6.514;2023-09-19T07:27:55;14.20;99.90
52181;DHT22;38158;53.338;6.514;2023-09-19T07:30:21;14.20;99.90
52181;DHT22;38158;53.338;6.514;2023-09-19T07:32:47;14.20;99.90
52181;DHT22;38158;53.338;6.514;2023-09-19T07:35:13;14.20;99.90
52181;DHT22;38158;53.338;6.514;2023-09-19T07:37:40;14.20;99.90
52181;DHT22;38158;53.338;6.514;2023-09-19T07:40:06;14.30;99.90
52181;DHT22;38158;53.338;6.514;2023-09-19T07:42:33;14.30;99.90
52181;DHT22;38158;53.338;6.514;2023-09-19T07:45:01;14.40;99.90
52181;DHT22;38158;53.338;6.514;2023-09-19T07:47:27;14.50;99.90
52181;DHT22;38158;53.338;6.514;2023-09-19T07:49:53;14.50;99.90
52181;DHT22;38158;53.338;6.514;2023-09-19T07:52:20;14.60;99.90
52181;DHT22;38158;53.338;6.514;2023-09-19T07:54:48;14.70;99.90
52181;DHT22;38158;53.338;6.514;2023-09-19T07:57:15;14.80;99.90
52181;DHT22;38158;53.338;6.514;2023-09-19T07:59:41;14.80;99.90
52181;DHT22;38158;53.338;6.514;2023-09-19T08:02:08;14.80;99.90
52181;DHT22;38158;53.338;6.514;2023-09-19T08:04:44;14.80;99.90
52181;DHT22;38158;53.338;6.514;2023-09-19T08:07:12;14.80;99.90
52181;DHT22;38158;53.338;6.514;2023-09-19T08:09:41;14.80;99.90
52181;DHT22;38158;53.338;6.514;2023-09-19T08:12:11;14.80;99.90
52181;DHT22;38158;53.338;6.514;2023-09-19T08:14:37;14.90;99.90
52181;DHT22;38158;53.338;6.514;2023-09-19T08:17:03;14.90;99.90
52181;DHT22;38158;53.338;6.514;2023-09-19T08:19:31;15.00;99.90
52181;DHT22;38158;53.338;6.514;2023-09-19T08:21:58;15.00;99.90
52181;DHT22;38158;53.338;6.514;2023-09-19T08:24:27;14.90;99.90
52181;DHT22;38158;53.338;6.514;2023-09-19T08:26:54;15.00;99.90
52181;DHT22;38158;53.338;6.514;2023-09-19T08:29:21;14.90;99.90
52181;DHT22;38158;53.338;6.514;2023-09-19T08:31:46;14.90;99.90
52181;DHT22;38158;53.338;6.514;2023-09-19T08:34:16;15.00;99.90
52181;DHT22;38158;53.338;6.514;2023-09-19T08:36:42;15.00;99.90
52181;DHT22;38158;53.338;6.514;2023-09-19T08:39:10;15.90;99.90
52181;DHT22;38158;53.338;6.514;2023-09-19T08:41:36;15.10;99.90
52181;DHT22;38158;53.338;6.514;2023-09-19T08:44:02;15.20;99.90
52181;DHT22;38158;53.338;6.514;2023-09-19T08:46:30;15.20;99.90
52181;DHT22;38158;53.338;6.514;2023-09-19T08:49:03;15.20;99.90
52181;DHT22;38158;53.338;6.514;2023-09-19T08:51:41;15.30;99.90
52181;DHT22;38158;53.338;6.514;2023-09-19T08:54:17;15.30;99.90
52181;DHT22;38158;53.338;6.514;2023-09-19T08:56:48;15.30;99.90
52181;DHT22;38158;53.338;6.514;2023-09-19T08:59:15;15.30;99.90
52181;DHT22;38158;53.338;6.514;2023-09-19T09:01:42;15.40;99.90
52181;DHT22;38158;53.338;6.514;2023-09-19T09:04:09;15.50;99.90
52181;DHT22;38158;53.338;6.514;2023-09-19T09:06:38;15.60;99.90
52181;DHT22;38158;53.338;6.514;2023-09-19T09:09:05;15.60;99.90
52181;DHT22;38158;53.338;6.514;2023-09-19T09:11:34;15.70;99.90
52181;DHT22;38158;53.338;6.514;2023-09-19T09:14:00;15.80;99.90
52181;DHT22;38158;53.338;6.514;2023-09-19T09:16:26;16.00;99.90
52181;DHT22;38158;53.338;6.514;2023-09-19T09:18:51;16.00;99.90
52181;DHT22;38158;53.338;6.514;2023-09-19T09:21:20;16.10;99.90
52181;DHT22;38158;53.338;6.514;2023-09-19T09:23:48;16.20;99.90
52181;DHT22;38158;53.338;6.514;2023-09-19T09:26:15;16.30;99.90
52181;DHT22;38158;53.338;6.514;2023-09-19T09:28:45;16.30;99.90
52181;DHT22;38158;53.338;6.514;2023-09-19T09:31:23;16.40;99.90
52181;DHT22;38158;53.338;6.514;2023-09-19T09:33:56;16.40;99.90
52181;DHT22;38158;53.338;6.514;2023-09-19T09:36:39;16.50;99.90
52181;DHT22;38158;53.338;6.514;2023-09-19T09:39:07;16.70;99.90
52181;DHT22;38158;53.338;6.514;2023-09-19T09:41:50;16.70;99.90
52181;DHT22;38158;53.338;6.514;2023-09-19T09:44:17;16.80;99.90
52181;DHT22;38158;53.338;6.514;2023-09-19T09:46:45;16.80;99.90
52181;DHT22;38158;53.338;6.514;2023-09-19T09:49:27;16.80;99.90
52181;DHT22;38158;53.338;6.514;2023-09-19T09:54:27;16.70;99.90
52181;DHT22;38158;53.338;6.514;2023-09-19T09:57:07;16.60;99.90
52181;DHT22;38158;53.338;6.514;2023-09-19T09:59:58;16.60;99.90
52181;DHT22;38158;53.338;6.514;2023-09-19T10:02:41;16.60;99.90
52181;DHT22;38158;53.338;6.514;2023-09-19T10:05:18;16.70;99.90
52181;DHT22;38158;53.338;6.514;2023-09-19T10:07:48;16.70;99.90
52181;DHT22;38158;53.338;6.514;2023-09-19T10:10:35;16.80;99.90
52181;DHT22;38158;53.338;6.514;2023-09-19T10:13:20;16.90;99.90
52181;DHT22;38158;53.338;6.514;2023-09-19T10:15:50;17.00;99.90
52181;DHT22;38158;53.338;6.514;2023-09-19T10:18:27;17.00;99.90
52181;DHT22;38158;53.338;6.514;2023-09-19T10:20:56;17.00;99.90
52181;DHT22;38158;53.338;6.514;2023-09-19T10:23:22;17.00;99.90
52181;DHT22;38158;53.338;6.514;2023-09-19T10:25:49;16.90;99.90
52181;DHT22;38158;53.338;6.514;2023-09-19T10:28:17;16.90;99.90
52181;DHT22;38158;53.338;6.514;2023-09-19T10:30:57;17.00;99.90
52181;DHT22;38158;53.338;6.514;2023-09-19T10:33:25;17.10;99.90
52181;DHT22;38158;53.338;6.514;2023-09-19T10:35:58;17.10;99.90
52181;DHT22;38158;53.338;6.514;2023-09-19T10:38:26;17.10;99.90
52181;DHT22;38158;53.338;6.514;2023-09-19T10:40:55;17.10;99.90
52181;DHT22;38158;53.338;6.514;2023-09-19T10:43:26;17.10;99.90
52181;DHT22;38158;53.338;6.514;2023-09-19T10:46:00;17.30;99.90
52181;DHT22;38158;53.338;6.514;2023-09-19T10:48:26;17.50;99.90
52181;DHT22;38158;53.338;6.514;2023-09-19T10:51:16;17.70;99.90
52181;DHT22;38158;53.338;6.514;2023-09-19T10:53:51;17.80;99.90
52181;DHT22;38158;53.338;6.514;2023-09-19T10:56:23;17.70;99.90
52181;DHT22;38158;53.338;6.514;2023-09-19T10:58:50;17.70;99.90
52181;DHT22;38158;53.338;6.514;2023-09-19T11:01:16;17.70;99.90
52181;DHT22;38158;53.338;6.514;2023-09-19T11:03:43;17.70;99.90
52181;DHT22;38158;53.338;6.514;2023-09-19T11:06:16;17.70;99.90
52181;DHT22;38158;53.338;6.514;2023-09-19T11:08:59;17.80;99.90
52181;DHT22;38158;53.338;6.514;2023-09-19T11:30:39;17.20;99.90
52181;DHT22;38158;53.338;6.514;2023-09-19T11:33:21;17.10;99.90
52181;DHT22;38158;53.338;6.514;2023-09-19T11:44:33;17.30;99.90
52181;DHT22;38158;53.338;6.514;2023-09-19T11:49:18;17.20;99.90
52181;DHT22;38158;53.338;6.514;2023-09-19T11:51:51;17.20;99.90
52181;DHT22;38158;53.338;6.514;2023-09-19T11:54:17;17.20;99.90
52181;DHT22;38158;53.338;6.514;2023-09-19T11:56:51;17.30;99.90
52181;DHT22;38158;53.338;6.514;2023-09-19T11:59:26;17.30;99.90
52181;DHT22;38158;53.338;6.514;2023-09-19T12:01:59;17.40;99.90
52181;DHT22;38158;53.338;6.514;2023-09-19T12:04:40;17.40;99.90
52181;DHT22;38158;53.338;6.514;2023-09-19T12:07:14;17.30;99.90
52181;DHT22;38158;53.338;6.514;2023-09-19T12:09:46;17.30;99.90
52181;DHT22;38158;53.338;6.514;2023-09-19T12:12:23;17.30;99.90
52181;DHT22;38158;53.338;6.514;2023-09-19T12:14:49;17.20;99.90
52181;DHT22;38158;53.338;6.514;2023-09-19T12:17:16;17.20;99.90
52181;DHT22;38158;53.338;6.514;2023-09-19T12:19:56;17.20;99.90
52181;DHT22;38158;53.338;6.514;2023-09-19T12:22:22;17.20;99.90
52181;DHT22;38158;53.338;6.514;2023-09-19T12:24:48;17.20;99.90
52181;DHT22;38158;53.338;6.514;2023-09-19T12:27:16;17.20;99.90
52181;DHT22;38158;53.338;6.514;2023-09-19T12:29:48;17.10;99.90
52181;DHT22;38158;53.338;6.514;2023-09-19T12:32:15;17.10;99.90
52181;DHT22;38158;53.338;6.514;2023-09-19T12:34:53;16.90;99.90
52181;DHT22;38158;53.338;6.514;2023-09-19T12:37:20;16.70;99.90
52181;DHT22;38158;53.338;6.514;2023-09-19T12:39:53;16.40;99.90
52181;DHT22;38158;53.338;6.514;2023-09-19T12:42:24;16.20;99.90
52181;DHT22;38158;53.338;6.514;2023-09-19T12:44:53;16.10;99.90
52181;DHT22;38158;53.338;6.514;2023-09-19T12:47:23;16.20;99.90
52181;DHT22;38158;53.338;6.514;2023-09-19T12:50:08;16.30;99.90
52181;DHT22;38158;53.338;6.514;2023-09-19T12:55:25;16.40;99.90
52181;DHT22;38158;53.338;6.514;2023-09-19T12:58:14;16.60;99.90
52181;DHT22;38158;53.338;6.514;2023-09-19T13:00:45;16.70;99.90
52181;DHT22;38158;53.338;6.514;2023-09-19T13:05:51;16.80;99.90
52181;DHT22;38158;53.338;6.514;2023-09-19T13:08:25;16.90;99.90
52181;DHT22;38158;53.338;6.514;2023-09-19T13:11:05;16.90;99.90
52181;DHT22;38158;53.338;6.514;2023-09-19T13:13:32;16.90;99.90
52181;DHT22;38158;53.338;6.514;2023-09-19T13:16:00;16.90;99.90
52181;DHT22;38158;53.338;6.514;2023-09-19T13:18:27;16.90;99.90
52181;DHT22;38158;53.338;6.514;2023-09-19T13:21:12;16.90;99.90
52181;DHT22;38158;53.338;6.514;2023-09-19T13:23:53;16.80;99.90
52181;DHT22;38158;53.338;6.514;2023-09-19T13:26:20;16.60;99.90
52181;DHT22;38158;53.338;6.514;2023-09-19T13:28:46;16.50;99.90
52181;DHT22;38158;53.338;6.514;2023-09-19T13:31:13;16.30;99.90
52181;DHT22;38158;53.338;6.514;2023-09-19T13:33:44;16.30;99.90
52181;DHT22;38158;53.338;6.514;2023-09-19T13:36:11;16.20;99.90
52181;DHT22;38158;53.338;6.514;2023-09-19T13:38:37;16.20;99.90
52181;DHT22;38158;53.338;6.514;2023-09-19T13:41:03;16.10;99.90
52181;DHT22;38158;53.338;6.514;2023-09-19T13:43:29;16.20;99.90
52181;DHT22;38158;53.338;6.514;2023-09-19T13:45:54;16.20;99.90
52181;DHT22;38158;53.338;6.514;2023-09-19T13:48:20;16.20;99.90
52181;DHT22;38158;53.338;6.514;2023-09-19T13:50:48;16.20;99.90
52181;DHT22;38158;53.338;6.514;2023-09-19T13:53:14;16.20;99.90
52181;DHT22;38158;53.338;6.514;2023-09-19T13:55:39;16.30;99.90
52181;DHT22;38158;53.338;6.514;2023-09-19T13:58:05;16.40;99.90
52181;DHT22;38158;53.338;6.514;2023-09-19T14:00:32;16.60;99.90
52181;DHT22;38158;53.338;6.514;2023-09-19T14:03:03;16.70;99.90
52181;DHT22;38158;53.338;6.514;2023-09-19T14:05:30;16.80;99.90
52181;DHT22;38158;53.338;6.514;2023-09-19T14:07:56;17.00;99.90
52181;DHT22;38158;53.338;6.514;2023-09-19T14:10:22;17.10;99.90
52181;DHT22;38158;53.338;6.514;2023-09-19T14:12:48;17.10;99.90
52181;DHT22;38158;53.338;6.514;2023-09-19T14:15:14;17.20;99.90
52181;DHT22;38158;53.338;6.514;2023-09-19T14:17:40;17.30;99.90
52181;DHT22;38158;53.338;6.514;2023-09-19T14:20:11;17.40;99.90
52181;DHT22;38158;53.338;6.514;2023-09-19T14:22:36;17.50;99.90
52181;DHT22;38158;53.338;6.514;2023-09-19T14:25:06;17.50;99.90
52181;DHT22;38158;53.338;6.514;2023-09-19T14:27:31;17.60;99.90
52181;DHT22;38158;53.338;6.514;2023-09-19T14:29:58;17.50;99.90
52181;DHT22;38158;53.338;6.514;2023-09-19T14:32:24;17.50;99.90
52181;DHT22;38158;53.338;6.514;2023-09-19T14:34:49;17.40;99.90
52181;DHT22;38158;53.338;6.514;2023-09-19T14:37:15;17.30;99.90
52181;DHT22;38158;53.338;6.514;2023-09-19T14:39:46;17.30;99.90
52181;DHT22;38158;53.338;6.514;2023-09-19T14:42:12;17.30;99.90
52181;DHT22;38158;53.338;6.514;2023-09-19T14:44:40;17.20;99.90
52181;DHT22;38158;53.338;6.514;2023-09-19T14:47:05;17.10;99.90
52181;DHT22;38158;53.338;6.514;2023-09-19T14:49:36;16.90;99.90
52181;DHT22;38158;53.338;6.514;2023-09-19T14:52:08;16.80;99.90
52181;DHT22;38158;53.338;6.514;2023-09-19T14:54:35;16.70;99.90
52181;DHT22;38158;53.338;6.514;2023-09-19T14:57:00;16.60;99.90
52181;DHT22;38158;53.338;6.514;2023-09-19T14:59:33;16.50;99.90
52181;DHT22;38158;53.338;6.514;2023-09-19T15:02:03;16.50;99.90
52181;DHT22;38158;53.338;6.514;2023-09-19T15:04:29;16.40;99.90
52181;DHT22;38158;53.338;6.514;2023-09-19T15:06:55;16.40;99.90
52181;DHT22;38158;53.338;6.514;2023-09-19T15:09:24;16.30;99.90
52181;DHT22;38158;53.338;6.514;2023-09-19T15:11:52;16.30;99.90
52181;DHT22;38158;53.338;6.514;2023-09-19T15:14:18;16.30;99.90
52181;DHT22;38158;53.338;6.514;2023-09-19T15:16:44;16.20;99.90
52181;DHT22;38158;53.338;6.514;2023-09-19T15:19:10;16.20;99.90
52181;DHT22;38158;53.338;6.514;2023-09-19T15:21:36;16.10;99.90
52181;DHT22;38158;53.338;6.514;2023-09-19T15:24:03;16.10;99.90
52181;DHT22;38158;53.338;6.514;2023-09-19T15:26:28;16.00;99.90
52181;DHT22;38158;53.338;6.514;2023-09-19T15:28:55;16.00;99.90
52181;DHT22;38158;53.338;6.514;2023-09-19T15:31:22;16.00;99.90
52181;DHT22;38158;53.338;6.514;2023-09-19T15:33:48;16.10;99.90
52181;DHT22;38158;53.338;6.514;2023-09-19T15:36:15;16.10;99.90
52181;DHT22;38158;53.338;6.514;2023-09-19T15:41:29;16.20;99.90
52181;DHT22;38158;53.338;6.514;2023-09-19T15:43:56;16.10;99.90
52181;DHT22;38158;53.338;6.514;2023-09-19T15:46:23;16.10;99.90
52181;DHT22;38158;53.338;6.514;2023-09-19T15:48:49;16.00;99.90
52181;DHT22;38158;53.338;6.514;2023-09-19T15:51:15;15.90;99.90
52181;DHT22;38158;53.338;6.514;2023-09-19T15:53:52;15.90;99.90
52181;DHT22;38158;53.338;6.514;2023-09-19T15:56:19;15.90;99.90
52181;DHT22;38158;53.338;6.514;2023-09-19T15:58:50;15.80;99.90
52181;DHT22;38158;53.338;6.514;2023-09-19T16:01:17;15.80;99.90
52181;DHT22;38158;53.338;6.514;2023-09-19T16:03:45;15.80;99.90
52181;DHT22;38158;53.338;6.514;2023-09-19T16:06:19;15.80;99.90
52181;DHT22;38158;53.338;6.514;2023-09-19T16:08:47;15.90;99.90
52181;DHT22;38158;53.338;6.514;2023-09-19T16:11:14;15.90;99.90
52181;DHT22;38158;53.338;6.514;2023-09-19T16:13:41;15.90;99.90
52181;DHT22;38158;53.338;6.514;2023-09-19T16:16:08;15.90;99.90
52181;DHT22;38158;53.338;6.514;2023-09-19T16:18:44;15.90;99.90
52181;DHT22;38158;53.338;6.514;2023-09-19T16:21:10;15.90;99.90
52181;DHT22;38158;53.338;6.514;2023-09-19T16:23:36;15.90;99.90
52181;DHT22;38158;53.338;6.514;2023-09-19T16:26:12;15.90;99.90
52181;DHT22;38158;53.338;6.514;2023-09-19T16:28:39;15.90;99.90
52181;DHT22;38158;53.338;6.514;2023-09-19T16:31:06;15.80;99.90
52181;DHT22;38158;53.338;6.514;2023-09-19T16:33:33;15.80;99.90
52181;DHT22;38158;53.338;6.514;2023-09-19T16:36:06;15.80;99.90
52181;DHT22;38158;53.338;6.514;2023-09-19T16:38:33;15.80;99.90
52181;DHT22;38158;53.338;6.514;2023-09-19T16:40:59;15.80;99.90